Time,TemperatureF,DewpointF,PressureIn,WindDirection,WindDirectionDegrees,WindSpeedMPH,WindSpeedGustMPH,Humidity,HourlyPrecipIn,Conditions,Clouds,dailyrainin,SoftwareType,DateUTC
2013-05-25 00:02:00,55.7,50.0,30.04,ENE,75,9.2,9.2,81,0.00,CLR,,0.00,WeatherDisplay:10.37,2013-05-24 22:02:00,
2013-05-25 00:07:00,55.8,50.1,30.04,East,81,6.9,6.9,81,0.00,CLR,,0.00,WeatherDisplay:10.37,2013-05-24 22:07:00,
2013-05-25 00:12:00,55.8,50.1,30.05,East,85,9.2,9.2,81,0.00,CLR,,0.00,WeatherDisplay:10.37,2013-05-24 22:12:00,
2013-05-25 00:17:00,55.9,50.2,30.05,East,92,8.1,8.1,81,0.00,CLR,,0.00,WeatherDisplay:10.37,2013-05-24 22:17:00,
2013-05-25 00:22:00,55.9,50.2,30.04,East,95,9.2,9.2,81,0.00,CLR,,0.00,WeatherDisplay:10.37,2013-05-24 22:22:00,
2013-05-25 00:27:00,55.9,50.2,30.04,ESE,106,8.1,8.1,81,0.00,CLR,,0.00,WeatherDisplay:10.37,2013-05-24 22:27:00,
2013-05-25 00:32:00,55.9,50.2,30.04,ESE,110,10.4,10.4,81,0.00,CLR,,0.00,WeatherDisplay:10.37,2013-05-24 22:32:00,
2013-05-25 00:37:00,56.0,50.6,30.04,ESE,108,6.9,6.9,82,0.00,CLR,,0.00,WeatherDisplay:10.37,2013-05-24 22:37:00,
2013-05-25 00:42:00,56.0,50.6,30.04,ESE,111,6.9,6.9,82,0.00,CLR,,0.00,WeatherDisplay:10.37,2013-05-24 22:42:00,
2013-05-25 00:47:00,56.2,50.8,30.04,ESE,110,8.1,8.1,82,0.00,CLR,,0.00,WeatherDisplay:10.37,2013-05-24 22:47:00,
2013-05-25 00:52:00,56.3,50.9,30.04,ESE,104,6.9,6.9,82,0.00,CLR,,0.00,WeatherDisplay:10.37,2013-05-24 22:52:00,
2013-05-25 00:57:00,56.3,50.9,30.04,ESE,108,9.2,9.2,82,0.00,CLR,,0.00,WeatherDisplay:10.37,2013-05-24 22:57:00,
2013-05-25 01:02:00,56.4,51.0,30.03,SE,131,8.1,8.1,82,0.00,CLR,,0.00,WeatherDisplay:10.37,2013-05-24 23:02:00,
2013-05-25 01:07:00,56.4,51.0,30.03,SE,124,8.1,8.1,82,0.00,CLR,,0.00,WeatherDisplay:10.37,2013-05-24 23:07:00,
2013-05-25 01:12:00,56.4,51.0,30.03,ESE,116,8.1,8.1,82,0.00,CLR,,0.00,WeatherDisplay:10.37,2013-05-24 23:12:00,
2013-05-25 01:17:00,56.5,51.1,30.03,ESE,120,9.2,9.2,82,0.00,CLR,,0.00,WeatherDisplay:10.37,2013-05-24 23:17:00,
2013-05-25 01:22:00,56.6,51.2,30.03,SE,137,4.6,4.6,82,0.00,CLR,,0.00,WeatherDisplay:10.37,2013-05-24 23:22:00,
2013-05-25 01:27:00,56.7,51.3,30.03,SE,139,5.8,5.8,82,0.00,CLR,,0.00,WeatherDisplay:10.37,2013-05-24 23:27:00,
2013-05-25 01:32:00,56.7,51.3,30.03,SE,145,4.6,4.6,82,0.00,CLR,,0.00,WeatherDisplay:10.37,2013-05-24 23:32:00,
2013-05-25 01:37:00,56.7,51.3,30.03,SE,135,4.6,4.6,82,0.00,CLR,,0.00,WeatherDisplay:10.37,2013-05-24 23:37:00,
2013-05-25 01:42:00,56.7,51.3,30.03,SE,145,4.0,4.0,82,0.00,CLR,,0.00,WeatherDisplay:10.37,2013-05-24 23:42:00,
2013-05-25 01:47:00,56.6,51.5,30.03,SE,138,4.6,4.6,83,0.00,CLR,,0.00,WeatherDisplay:10.37,2013-05-24 23:47:00,
2013-05-25 01:52:00,56.7,51.6,30.03,ESE,118,3.5,3.5,83,0.00,CLR,,0.00,WeatherDisplay:10.37,2013-05-24 23:52:00,
2013-05-25 01:57:00,56.7,51.6,30.03,SE,132,2.3,2.4,83,0.00,CLR,,0.00,WeatherDisplay:10.37,2013-05-24 23:57:00,
2013-05-25 02:02:00,56.8,51.7,30.03,SE,144,3.5,3.5,83,0.00,CLR,,0.00,WeatherDisplay:10.37,2013-05-25 00:02:00,
2013-05-25 02:07:00,56.8,51.7,30.03,SE,136,3.5,3.5,83,0.00,CLR,,0.00,WeatherDisplay:10.37,2013-05-25 00:07:00,
2013-05-25 02:12:00,56.8,51.7,30.03,SE,130,3.5,3.5,83,0.00,CLR,,0.00,WeatherDisplay:10.37,2013-05-25 00:12:00,
2013-05-25 02:17:00,56.8,51.7,30.02,SE,145,5.0,5.0,83,0.00,CLR,,0.00,WeatherDisplay:10.37,2013-05-25 00:17:00,
2013-05-25 02:22:00,56.8,52.0,30.02,SE,138,3.5,3.5,84,0.00,CLR,,0.00,WeatherDisplay:10.37,2013-05-25 00:22:00,
2013-05-25 02:27:00,56.8,52.0,30.02,SSE,166,5.8,5.8,84,0.00,CLR,,0.00,WeatherDisplay:10.37,2013-05-25 00:27:00,
2013-05-25 02:32:00,56.9,52.1,30.02,South,173,4.6,4.6,84,0.00,CLR,,0.00,WeatherDisplay:10.37,2013-05-25 00:32:00,
2013-05-25 02:37:00,57.0,52.2,30.02,SSE,160,3.5,3.5,84,0.00,CLR,,0.00,WeatherDisplay:10.37,2013-05-25 00:37:00,
2013-05-25 02:42:00,57.0,52.2,30.01,SSE,165,4.6,4.6,84,0.00,CLR,,0.00,WeatherDisplay:10.37,2013-05-25 00:42:00,
2013-05-25 02:47:00,57.1,52.3,30.01,SSE,168,3.5,3.5,84,0.00,CLR,,0.00,WeatherDisplay:10.37,2013-05-25 00:47:00,
2013-05-25 02:52:00,57.1,52.0,30.01,South,172,6.0,6.0,83,0.00,CLR,,0.00,WeatherDisplay:10.37,2013-05-25 00:52:00,
2013-05-25 02:57:00,57.1,52.3,30.01,SSE,165,6.9,6.9,84,0.00,CLR,,0.00,WeatherDisplay:10.37,2013-05-25 00:57:00,
2013-05-25 03:02:00,57.1,52.3,30.01,SSE,168,6.9,6.9,84,0.00,CLR,,0.00,WeatherDisplay:10.37,2013-05-25 01:02:00,
2013-05-25 03:07:00,57.0,52.2,30.00,SSE,167,5.8,5.8,84,0.00,CLR,,0.00,WeatherDisplay:10.37,2013-05-25 01:07:00,
2013-05-25 03:12:00,57.0,52.2,30.00,South,173,5.8,5.8,84,0.00,CLR,,0.00,WeatherDisplay:10.37,2013-05-25 01:12:00,
2013-05-25 03:17:00,56.9,52.1,30.00,SSE,168,4.6,4.6,84,0.00,CLR,,0.00,WeatherDisplay:10.37,2013-05-25 01:17:00,
2013-05-25 03:22:00,56.9,52.1,30.00,South,172,5.8,5.8,84,0.00,CLR,,0.00,WeatherDisplay:10.37,2013-05-25 01:22:00,
2013-05-25 03:27:00,56.8,52.3,30.00,SSE,165,5.8,5.8,85,0.00,CLR,,0.00,WeatherDisplay:10.37,2013-05-25 01:27:00,
2013-05-25 03:32:00,56.8,52.3,29.99,SSW,192,6.9,6.9,85,0.00,CLR,,0.00,WeatherDisplay:10.37,2013-05-25 01:32:00,
2013-05-25 03:37:00,56.9,52.4,29.99,South,172,9.0,9.0,85,0.00,CLR,,0.00,WeatherDisplay:10.37,2013-05-25 01:37:00,
2013-05-25 03:42:00,56.9,52.4,29.99,South,184,11.5,11.5,85,0.00,CLR,,0.00,WeatherDisplay:10.37,2013-05-25 01:42:00,
2013-05-25 03:47:00,56.9,52.4,29.99,SSW,206,8.1,8.1,85,0.00,CLR,,0.00,WeatherDisplay:10.37,2013-05-25 01:47:00,
2013-05-25 03:52:00,56.9,52.8,29.99,South,179,9.2,9.2,86,0.00,CLR,,0.00,WeatherDisplay:10.37,2013-05-25 01:52:00,
2013-05-25 03:57:00,56.9,52.4,29.99,South,183,8.1,8.1,85,0.00,CLR,,0.00,WeatherDisplay:10.37,2013-05-25 01:57:00,
2013-05-25 04:02:00,57.0,52.5,29.99,South,183,9.2,9.2,85,0.00,CLR,,0.00,WeatherDisplay:10.37,2013-05-25 02:02:00,
2013-05-25 04:07:00,56.9,52.8,29.99,South,172,8.1,8.1,86,0.00,CLR,,0.00,WeatherDisplay:10.37,2013-05-25 02:07:00,
2013-05-25 04:12:00,56.9,52.8,29.99,South,191,8.1,8.1,86,0.00,CLR,,0.00,WeatherDisplay:10.37,2013-05-25 02:12:00,
2013-05-25 04:17:00,57.0,52.9,29.99,SSW,192,10.4,10.4,86,0.00,CLR,,0.00,WeatherDisplay:10.37,2013-05-25 02:17:00,
2013-05-25 04:22:00,57.1,53.0,29.99,SSW,199,9.2,9.2,86,0.00,CLR,,0.00,WeatherDisplay:10.37,2013-05-25 02:22:00,
2013-05-25 04:27:00,57.1,53.0,29.99,SSW,202,10.4,10.4,86,0.00,CLR,,0.00,WeatherDisplay:10.37,2013-05-25 02:27:00,
2013-05-25 04:32:00,57.0,52.9,29.99,SSW,204,8.1,8.1,86,0.00,CLR,,0.00,WeatherDisplay:10.37,2013-05-25 02:32:00,
2013-05-25 04:37:00,57.1,53.3,29.99,SSW,206,10.4,10.4,87,0.00,CLR,,0.00,WeatherDisplay:10.37,2013-05-25 02:37:00,
2013-05-25 04:42:00,57.1,53.3,29.99,SSW,206,9.2,9.2,87,0.00,CLR,,0.00,WeatherDisplay:10.37,2013-05-25 02:42:00,
2013-05-25 04:47:00,57.0,53.2,29.99,SW,226,9.2,9.2,87,0.00,CLR,,0.00,WeatherDisplay:10.37,2013-05-25 02:47:00,
2013-05-25 04:52:00,57.0,53.2,29.99,SSW,196,9.2,9.2,87,0.00,CLR,,0.00,WeatherDisplay:10.37,2013-05-25 02:52:00,
2013-05-25 04:57:00,56.9,53.1,29.99,SW,216,9.2,9.2,87,0.00,CLR,,0.00,WeatherDisplay:10.37,2013-05-25 02:57:00,
2013-05-25 05:02:00,56.9,53.4,29.99,SSW,204,10.4,10.4,88,0.00,CLR,,0.00,WeatherDisplay:10.37,2013-05-25 03:02:00,
2013-05-25 05:07:00,56.9,53.4,29.99,SW,216,11.5,11.5,88,0.00,CLR,,0.00,WeatherDisplay:10.37,2013-05-25 03:07:00,
2013-05-25 05:12:00,56.9,53.4,29.98,SSW,208,11.5,11.5,88,0.00,CLR,,0.00,WeatherDisplay:10.37,2013-05-25 03:12:00,
2013-05-25 05:17:00,56.9,53.4,29.98,SSW,213,10.4,10.4,88,0.00,CLR,,0.00,WeatherDisplay:10.37,2013-05-25 03:17:00,
2013-05-25 05:22:00,57.0,53.5,29.98,SSW,204,11.5,11.5,88,0.00,CLR,,0.00,WeatherDisplay:10.37,2013-05-25 03:22:00,
2013-05-25 05:27:00,56.9,53.4,29.98,SSW,210,10.4,10.4,88,0.00,CLR,,0.00,WeatherDisplay:10.37,2013-05-25 03:27:00,
2013-05-25 05:32:00,56.9,53.7,29.98,SSW,201,11.5,11.5,89,0.00,CLR,,0.00,WeatherDisplay:10.37,2013-05-25 03:32:00,
2013-05-25 05:37:00,57.0,53.8,29.98,SW,214,12.0,12.0,89,0.00,CLR,,0.00,WeatherDisplay:10.37,2013-05-25 03:37:00,
2013-05-25 05:42:00,57.0,53.8,29.98,SW,215,10.4,10.4,89,0.00,CLR,,0.00,WeatherDisplay:10.37,2013-05-25 03:42:00,
2013-05-25 05:47:00,57.2,54.0,29.98,SSW,204,11.5,11.5,89,0.00,CLR,,0.00,WeatherDisplay:10.37,2013-05-25 03:47:00,
2013-05-25 05:52:00,57.2,54.0,29.98,SSW,208,11.5,11.5,89,0.00,CLR,,0.00,WeatherDisplay:10.37,2013-05-25 03:52:00,
2013-05-25 05:57:00,57.0,53.8,29.98,SW,218,11.5,11.5,89,0.00,CLR,,0.00,WeatherDisplay:10.37,2013-05-25 03:57:00,
2013-05-25 06:01:00,57.0,53.8,29.98,SSW,213,11.5,11.5,89,0.00,CLR,,0.00,WeatherDisplay:10.37,2013-05-25 04:01:00,
2013-05-25 06:06:00,57.0,54.1,29.98,SW,218,10.4,10.4,90,0.00,CLR,,0.00,WeatherDisplay:10.37,2013-05-25 04:06:00,
2013-05-25 06:11:00,57.1,54.2,29.98,SW,228,13.0,13.0,90,0.00,CLR,,0.00,WeatherDisplay:10.37,2013-05-25 04:11:00,
2013-05-25 06:16:00,57.0,54.1,29.98,SW,228,12.7,12.7,90,0.00,CLR,,0.00,WeatherDisplay:10.37,2013-05-25 04:16:00,
2013-05-25 06:21:00,57.1,54.2,29.97,SW,221,13.0,13.0,90,0.00,CLR,,0.00,WeatherDisplay:10.37,2013-05-25 04:21:00,
2013-05-25 06:26:00,57.1,54.2,29.97,SW,233,11.5,11.5,90,0.00,CLR,,0.00,WeatherDisplay:10.37,2013-05-25 04:26:00,
2013-05-25 06:31:00,57.1,53.9,29.97,SW,233,11.5,11.5,89,0.00,CLR,,0.00,WeatherDisplay:10.37,2013-05-25 04:31:00,
2013-05-25 06:36:00,56.8,53.6,29.98,WSW,256,10.4,10.4,89,0.00,CLR,,0.00,WeatherDisplay:10.37,2013-05-25 04:36:00,
2013-05-25 06:41:00,56.5,53.6,29.98,West,262,9.2,9.2,90,0.00,CLR,,0.00,WeatherDisplay:10.37,2013-05-25 04:41:00,
2013-05-25 06:46:00,56.0,52.8,29.98,NW,320,4.0,4.0,89,0.00,CLR,,0.00,WeatherDisplay:10.37,2013-05-25 04:46:00,
2013-05-25 06:51:00,55.7,52.8,29.98,NNW,340,8.1,8.1,90,0.00,CLR,,0.00,WeatherDisplay:10.37,2013-05-25 04:51:00,
2013-05-25 06:56:00,56.0,53.1,29.98,West,275,9.2,9.2,90,0.00,CLR,,0.00,WeatherDisplay:10.37,2013-05-25 04:56:00,
2013-05-25 07:01:00,56.4,53.5,29.98,WNW,283,12.7,12.7,90,0.00,CLR,,0.00,WeatherDisplay:10.37,2013-05-25 05:01:00,
2013-05-25 07:06:00,56.6,53.7,29.98,WNW,290,11.5,11.5,90,0.00,CLR,,0.00,WeatherDisplay:10.37,2013-05-25 05:06:00,
2013-05-25 07:11:00,56.8,53.6,29.98,West,280,11.5,11.5,89,0.00,CLR,,0.00,WeatherDisplay:10.37,2013-05-25 05:11:00,
2013-05-25 07:16:00,56.8,53.6,29.98,West,260,11.5,11.5,89,0.00,CLR,,0.00,WeatherDisplay:10.37,2013-05-25 05:16:00,
2013-05-25 07:21:00,56.9,53.7,29.98,NW,316,9.2,9.2,89,0.00,CLR,,0.00,WeatherDisplay:10.37,2013-05-25 05:21:00,
2013-05-25 07:26:00,56.8,53.3,29.98,SSW,210,12.7,12.7,88,0.00,CLR,,0.00,WeatherDisplay:10.37,2013-05-25 05:26:00,
2013-05-25 07:31:00,56.8,53.3,29.98,West,263,11.5,11.5,88,0.00,CLR,,0.00,WeatherDisplay:10.37,2013-05-25 05:31:00,
2013-05-25 07:36:00,57.0,53.5,29.98,WNW,287,11.0,11.0,88,0.00,CLR,,0.00,WeatherDisplay:10.37,2013-05-25 05:36:00,
2013-05-25 07:41:00,57.1,53.6,29.98,West,277,10.4,10.4,88,0.00,CLR,,0.00,WeatherDisplay:10.37,2013-05-25 05:41:00,
2013-05-25 07:46:00,57.3,53.5,29.98,WSW,249,10.0,10.0,87,0.00,CLR,,0.00,WeatherDisplay:10.37,2013-05-25 05:46:00,
2013-05-25 07:51:00,57.4,53.6,29.98,WSW,253,11.5,11.5,87,0.00,CLR,,0.00,WeatherDisplay:10.37,2013-05-25 05:51:00,
2013-05-25 07:56:00,57.5,53.7,29.98,SW,231,11.5,11.5,87,0.00,CLR,,0.00,WeatherDisplay:10.37,2013-05-25 05:56:00,
2013-05-25 08:01:00,57.6,53.4,29.98,WSW,248,17.3,17.3,86,0.00,CLR,,0.00,WeatherDisplay:10.37,2013-05-25 06:01:00,
2013-05-25 08:06:00,57.7,53.2,29.98,WNW,296,13.0,13.0,85,0.00,CLR,,0.00,WeatherDisplay:10.37,2013-05-25 06:06:00,
2013-05-25 08:11:00,57.8,53.0,29.99,West,270,14.0,14.0,84,0.00,CLR,,0.00,WeatherDisplay:10.37,2013-05-25 06:11:00,
2013-05-25 08:16:00,57.9,52.8,29.99,West,278,15.0,15.0,83,0.00,CLR,,0.00,WeatherDisplay:10.37,2013-05-25 06:16:00,
2013-05-25 08:21:00,57.8,52.7,29.99,WNW,298,16.1,16.1,83,0.00,CLR,,0.00,WeatherDisplay:10.37,2013-05-25 06:21:00,
2013-05-25 08:26:00,57.7,52.9,29.99,WSW,256,16.1,16.1,84,0.00,CLR,,0.00,WeatherDisplay:10.37,2013-05-25 06:26:00,
2013-05-25 08:31:00,57.7,52.2,29.99,NW,312,15.0,15.0,82,0.00,CLR,,0.00,WeatherDisplay:10.37,2013-05-25 06:31:00,
2013-05-25 08:36:00,57.8,52.3,29.99,West,280,17.3,17.3,82,0.00,CLR,,0.00,WeatherDisplay:10.37,2013-05-25 06:36:00,
2013-05-25 08:41:00,58.1,53.0,29.99,WNW,285,11.5,11.5,83,0.00,CLR,,0.00,WeatherDisplay:10.37,2013-05-25 06:41:00,
2013-05-25 08:46:00,58.2,52.7,29.99,NW,312,11.5,11.5,82,0.00,CLR,,0.00,WeatherDisplay:10.37,2013-05-25 06:46:00,
2013-05-25 08:51:00,58.6,53.1,29.99,WNW,293,12.7,12.7,82,0.00,CLR,,0.00,WeatherDisplay:10.37,2013-05-25 06:51:00,
2013-05-25 08:56:00,58.7,52.9,30.00,North,349,12.7,12.7,81,0.00,CLR,,0.00,WeatherDisplay:10.37,2013-05-25 06:56:00,
2013-05-25 09:01:00,58.8,52.6,30.00,WNW,303,11.5,11.5,80,0.00,CLR,,0.00,WeatherDisplay:10.37,2013-05-25 07:01:00,
2013-05-25 09:06:00,59.4,52.9,30.00,WNW,287,6.9,6.9,79,0.00,CLR,,0.00,WeatherDisplay:10.37,2013-05-25 07:06:00,
2013-05-25 09:11:00,59.7,51.8,30.00,WNW,300,10.4,10.4,75,0.00,CLR,,0.00,WeatherDisplay:10.37,2013-05-25 07:11:00,
2013-05-25 09:16:00,60.1,51.0,30.00,NW,312,14.0,14.0,72,0.00,CLR,,0.00,WeatherDisplay:10.37,2013-05-25 07:16:00,
2013-05-25 09:21:00,60.0,49.4,30.00,West,277,15.0,15.0,68,0.00,CLR,,0.00,WeatherDisplay:10.37,2013-05-25 07:21:00,
2013-05-25 09:26:00,59.9,48.9,30.00,NW,311,17.3,17.3,67,0.00,CLR,,0.00,WeatherDisplay:10.37,2013-05-25 07:26:00,
2013-05-25 09:31:00,60.1,49.1,30.00,NW,304,11.0,11.0,67,0.00,CLR,,0.00,WeatherDisplay:10.37,2013-05-25 07:31:00,
2013-05-25 09:36:00,60.5,49.1,30.00,NW,322,11.5,11.5,66,0.00,CLR,,0.00,WeatherDisplay:10.37,2013-05-25 07:36:00,
2013-05-25 09:41:00,60.6,49.2,30.01,NNW,334,13.0,13.0,66,0.00,CLR,,0.00,WeatherDisplay:10.37,2013-05-25 07:41:00,
2013-05-25 09:46:00,60.2,48.4,30.01,NNW,343,19.6,19.6,65,0.00,CLR,,0.00,WeatherDisplay:10.37,2013-05-25 07:46:00,
2013-05-25 09:51:00,60.4,48.6,30.01,North,4,12.7,12.7,65,0.00,CLR,,0.00,WeatherDisplay:10.37,2013-05-25 07:51:00,
2013-05-25 09:56:00,60.4,47.3,30.01,North,354,12.7,12.7,62,0.00,CLR,,0.00,WeatherDisplay:10.37,2013-05-25 07:56:00,
2013-05-25 10:01:00,60.4,47.7,30.01,WNW,301,17.3,17.3,63,0.00,CLR,,0.00,WeatherDisplay:10.37,2013-05-25 08:01:00,
2013-05-25 10:06:00,61.2,47.6,30.01,WNW,288,9.2,9.2,61,0.00,CLR,,0.00,WeatherDisplay:10.37,2013-05-25 08:06:00,
2013-05-25 10:11:00,61.4,46.0,30.01,NW,305,11.5,11.5,57,0.00,CLR,,0.00,WeatherDisplay:10.37,2013-05-25 08:11:00,
2013-05-25 10:16:00,61.4,46.5,30.01,WSW,257,11.5,11.5,58,0.00,CLR,,0.00,WeatherDisplay:10.37,2013-05-25 08:16:00,
2013-05-25 10:21:00,61.5,45.7,30.01,WNW,289,14.0,14.0,56,0.00,CLR,,0.00,WeatherDisplay:10.37,2013-05-25 08:21:00,
2013-05-25 10:26:00,61.2,44.9,30.01,WNW,287,17.3,17.3,55,0.00,CLR,,0.00,WeatherDisplay:10.37,2013-05-25 08:26:00,
2013-05-25 10:31:00,61.7,45.4,30.01,WNW,296,10.4,10.4,55,0.00,CLR,,0.00,WeatherDisplay:10.37,2013-05-25 08:31:00,
2013-05-25 10:36:00,62.2,45.3,30.00,SW,222,10.4,10.4,54,0.00,CLR,,0.00,WeatherDisplay:10.37,2013-05-25 08:36:00,
2013-05-25 10:41:00,62.2,44.3,30.00,NW,304,17.3,17.3,52,0.00,CLR,,0.00,WeatherDisplay:10.37,2013-05-25 08:41:00,
2013-05-25 10:46:00,62.4,44.5,30.01,West,262,12.7,12.7,52,0.00,CLR,,0.00,WeatherDisplay:10.37,2013-05-25 08:46:00,
2013-05-25 10:51:00,62.1,44.8,30.01,NNW,341,13.8,13.8,53,0.00,CLR,,0.00,WeatherDisplay:10.37,2013-05-25 08:51:00,
2013-05-25 10:56:00,61.8,45.5,30.01,North,359,14.0,14.0,55,0.00,CLR,,0.00,WeatherDisplay:10.37,2013-05-25 08:56:00,
2013-05-25 11:01:00,61.9,45.5,30.01,NW,317,11.5,11.5,55,0.00,CLR,,0.00,WeatherDisplay:10.37,2013-05-25 09:01:00,
2013-05-25 11:06:00,61.6,44.8,30.01,WNW,296,16.1,16.1,54,0.00,CLR,,0.00,WeatherDisplay:10.37,2013-05-25 09:06:00,
2013-05-25 11:11:00,62.2,44.3,30.01,West,274,13.8,13.8,52,0.00,CLR,,0.00,WeatherDisplay:10.37,2013-05-25 09:11:00,
2013-05-25 11:16:00,62.4,44.5,30.01,West,260,15.0,15.0,52,0.00,CLR,,0.00,WeatherDisplay:10.37,2013-05-25 09:16:00,
2013-05-25 11:21:00,62.6,44.2,30.01,WSW,251,17.3,17.3,51,0.00,CLR,,0.00,WeatherDisplay:10.37,2013-05-25 09:21:00,
2013-05-25 11:26:00,61.9,43.6,30.01,SW,234,19.6,19.6,51,0.00,CLR,,0.00,WeatherDisplay:10.37,2013-05-25 09:26:00,
2013-05-25 11:31:00,62.2,43.8,30.02,WNW,284,18.0,18.0,51,0.00,CLR,,0.00,WeatherDisplay:10.37,2013-05-25 09:31:00,
2013-05-25 11:36:00,62.2,44.3,30.02,West,262,12.7,12.7,52,0.00,CLR,,0.00,WeatherDisplay:10.37,2013-05-25 09:36:00,
2013-05-25 11:41:00,62.6,43.7,30.02,WNW,299,18.4,18.4,50,0.00,CLR,,0.00,WeatherDisplay:10.37,2013-05-25 09:41:00,
2013-05-25 11:46:00,62.8,43.9,30.01,WNW,296,18.4,18.4,50,0.00,CLR,,0.00,WeatherDisplay:10.37,2013-05-25 09:46:00,
2013-05-25 11:51:00,63.0,45.1,30.01,West,272,18.4,18.4,52,0.00,CLR,,0.00,WeatherDisplay:10.37,2013-05-25 09:51:00,
2013-05-25 11:56:00,62.9,44.5,30.02,WNW,288,19.6,19.6,51,0.00,CLR,,0.00,WeatherDisplay:10.37,2013-05-25 09:56:00,
2013-05-25 12:01:00,62.5,44.1,30.02,West,281,16.1,16.1,51,0.00,CLR,,0.00,WeatherDisplay:10.37,2013-05-25 10:01:00,
2013-05-25 12:06:00,62.7,45.3,30.02,WNW,291,15.0,15.0,53,0.00,CLR,,0.00,WeatherDisplay:10.37,2013-05-25 10:06:00,
2013-05-25 12:11:00,62.6,44.7,30.02,WNW,301,23.0,23.0,52,0.00,CLR,,0.00,WeatherDisplay:10.37,2013-05-25 10:11:00,
2013-05-25 12:16:00,62.7,45.3,30.02,West,276,18.4,18.4,53,0.00,CLR,,0.00,WeatherDisplay:10.37,2013-05-25 10:16:00,
2013-05-25 12:21:00,63.4,44.9,30.02,NW,312,18.4,18.4,51,0.00,CLR,,0.00,WeatherDisplay:10.37,2013-05-25 10:21:00,
2013-05-25 12:26:00,63.2,45.3,30.02,South,191,18.4,18.4,52,0.00,CLR,,0.00,WeatherDisplay:10.37,2013-05-25 10:26:00,
2013-05-25 12:31:00,63.6,45.1,30.02,WNW,282,16.1,16.1,51,0.00,CLR,,0.00,WeatherDisplay:10.37,2013-05-25 10:31:00,
2013-05-25 12:36:00,63.3,45.9,30.02,WSW,258,16.1,16.1,53,0.00,CLR,,0.00,WeatherDisplay:10.37,2013-05-25 10:36:00,
2013-05-25 12:41:00,63.8,45.3,30.02,South,182,19.6,19.6,51,0.00,CLR,,0.00,WeatherDisplay:10.37,2013-05-25 10:41:00,
2013-05-25 12:46:00,63.2,44.8,30.02,NW,308,21.9,21.9,51,0.00,CLR,,0.00,WeatherDisplay:10.37,2013-05-25 10:46:00,
2013-05-25 12:51:00,62.9,44.0,30.02,NW,320,18.4,18.4,50,0.00,CLR,,0.00,WeatherDisplay:10.37,2013-05-25 10:51:00,
2013-05-25 12:56:00,63.1,44.7,30.02,WSW,249,16.1,16.1,51,0.00,CLR,,0.00,WeatherDisplay:10.37,2013-05-25 10:56:00,
2013-05-25 13:01:00,63.7,44.2,30.02,WSW,242,19.6,19.6,49,0.00,CLR,,0.00,WeatherDisplay:10.37,2013-05-25 11:01:00,
2013-05-25 13:06:00,63.1,43.6,30.02,West,261,17.3,17.3,49,0.00,CLR,,0.00,WeatherDisplay:10.37,2013-05-25 11:06:00,
2013-05-25 13:11:00,63.9,44.4,30.02,NW,317,15.0,15.0,49,0.00,CLR,,0.00,WeatherDisplay:10.37,2013-05-25 11:11:00,
2013-05-25 13:16:00,63.6,43.5,30.02,NW,313,19.6,19.6,48,0.00,CLR,,0.00,WeatherDisplay:10.37,2013-05-25 11:16:00,
2013-05-25 13:21:00,63.7,44.2,30.02,West,278,15.0,15.0,49,0.00,CLR,,0.00,WeatherDisplay:10.37,2013-05-25 11:21:00,
2013-05-25 13:26:00,64.7,43.4,30.02,SW,223,19.6,19.6,46,0.00,CLR,,0.00,WeatherDisplay:10.37,2013-05-25 11:26:00,
2013-05-25 13:31:00,64.6,43.9,30.02,WSW,253,10.4,10.4,47,0.00,CLR,,0.00,WeatherDisplay:10.37,2013-05-25 11:31:00,
2013-05-25 13:36:00,64.5,43.8,30.01,West,264,17.0,17.0,47,0.00,CLR,,0.00,WeatherDisplay:10.37,2013-05-25 11:36:00,
2013-05-25 13:41:00,64.4,44.3,30.02,WNW,287,12.7,12.7,48,0.00,CLR,,0.00,WeatherDisplay:10.37,2013-05-25 11:41:00,
2013-05-25 13:46:00,63.9,43.8,30.02,SW,228,9.2,9.2,48,0.00,CLR,,0.00,WeatherDisplay:10.37,2013-05-25 11:46:00,
2013-05-25 13:51:00,64.5,43.8,30.02,West,275,16.1,16.1,47,0.00,CLR,,0.00,WeatherDisplay:10.37,2013-05-25 11:51:00,
2013-05-25 13:56:00,64.7,43.4,30.02,NW,305,16.1,16.1,46,0.00,CLR,,0.00,WeatherDisplay:10.37,2013-05-25 11:56:00,
2013-05-25 14:01:00,65.4,44.1,30.01,NW,310,17.3,17.3,46,0.00,CLR,,0.00,WeatherDisplay:10.37,2013-05-25 12:01:00,
2013-05-25 14:06:00,65.1,43.2,30.01,WNW,295,22.0,22.0,45,0.00,CLR,,0.00,WeatherDisplay:10.37,2013-05-25 12:06:00,
2013-05-25 14:11:00,64.9,43.0,30.01,WNW,291,18.0,18.0,45,0.00,CLR,,0.00,WeatherDisplay:10.37,2013-05-25 12:11:00,
2013-05-25 14:16:00,65.0,41.9,30.01,SSE,147,19.6,19.6,43,0.00,CLR,,0.00,WeatherDisplay:10.37,2013-05-25 12:16:00,
2013-05-25 14:21:00,65.5,41.8,30.01,SW,229,20.7,20.7,42,0.00,CLR,,0.00,WeatherDisplay:10.37,2013-05-25 12:21:00,
2013-05-25 14:26:00,64.7,41.1,30.01,NW,316,18.4,18.4,42,0.00,CLR,,0.00,WeatherDisplay:10.37,2013-05-25 12:26:00,
2013-05-25 14:31:00,64.2,41.2,30.01,NNW,347,17.3,17.3,43,0.00,CLR,,0.00,WeatherDisplay:10.37,2013-05-25 12:31:00,
2013-05-25 14:36:00,65.1,40.8,30.01,WSW,237,20.7,20.7,41,0.00,CLR,,0.00,WeatherDisplay:10.37,2013-05-25 12:36:00,
2013-05-25 14:41:00,65.1,42.0,30.02,WNW,284,16.1,16.1,43,0.00,CLR,,0.00,WeatherDisplay:10.37,2013-05-25 12:41:00,
2013-05-25 14:46:00,64.4,39.5,30.02,West,263,16.1,16.1,40,0.00,CLR,,0.00,WeatherDisplay:10.37,2013-05-25 12:46:00,
2013-05-25 14:51:00,64.1,39.9,30.01,WSW,250,19.6,19.6,41,0.00,CLR,,0.00,WeatherDisplay:10.37,2013-05-25 12:51:00,
2013-05-25 14:56:00,64.1,39.9,30.01,WSW,250,16.1,16.1,41,0.00,CLR,,0.00,WeatherDisplay:10.37,2013-05-25 12:56:00,
2013-05-25 15:01:00,64.6,41.0,30.01,SSW,199,16.1,16.1,42,0.00,CLR,,0.00,WeatherDisplay:10.37,2013-05-25 13:01:00,
2013-05-25 15:06:00,64.9,40.0,30.01,WNW,296,15.0,15.0,40,0.00,CLR,,0.00,WeatherDisplay:10.37,2013-05-25 13:06:00,
2013-05-25 15:11:00,64.5,40.3,30.01,WNW,282,20.7,20.7,41,0.00,CLR,,0.00,WeatherDisplay:10.37,2013-05-25 13:11:00,
2013-05-25 15:16:00,64.5,39.6,30.01,NW,307,17.3,17.3,40,0.00,CLR,,0.00,WeatherDisplay:10.37,2013-05-25 13:16:00,
2013-05-25 15:21:00,64.6,40.4,30.01,SSW,199,18.4,18.4,41,0.00,CLR,,0.00,WeatherDisplay:10.37,2013-05-25 13:21:00,
2013-05-25 15:26:00,64.9,40.6,30.01,WSW,256,15.0,15.0,41,0.00,CLR,,0.00,WeatherDisplay:10.37,2013-05-25 13:26:00,
2013-05-25 15:31:00,65.1,40.8,30.01,WNW,283,12.7,12.7,41,0.00,CLR,,0.00,WeatherDisplay:10.37,2013-05-25 13:31:00,
2013-05-25 15:36:00,66.0,41.0,30.01,WNW,285,13.8,13.8,40,0.00,CLR,,0.00,WeatherDisplay:10.37,2013-05-25 13:36:00,
2013-05-25 15:41:00,65.7,40.1,30.01,West,279,13.8,13.8,39,0.00,CLR,,0.00,WeatherDisplay:10.37,2013-05-25 13:41:00,
2013-05-25 15:46:00,65.7,41.3,30.01,South,180,9.2,9.2,41,0.00,CLR,,0.00,WeatherDisplay:10.37,2013-05-25 13:46:00,
2013-05-25 15:51:00,66.2,40.5,30.01,WNW,291,15.0,15.0,39,0.00,CLR,,0.00,WeatherDisplay:10.37,2013-05-25 13:51:00,
2013-05-25 15:56:00,65.5,41.2,30.01,WNW,301,9.0,9.0,41,0.00,CLR,,0.00,WeatherDisplay:10.37,2013-05-25 13:56:00,
2013-05-25 16:01:00,65.7,41.3,30.01,WNW,287,12.7,12.7,41,0.00,CLR,,0.00,WeatherDisplay:10.37,2013-05-25 14:01:00,
2013-05-25 16:06:00,65.8,41.4,30.01,WNW,294,13.8,13.8,41,0.00,CLR,,0.00,WeatherDisplay:10.37,2013-05-25 14:06:00,
2013-05-25 16:11:00,65.6,41.9,30.01,NW,318,5.8,5.8,42,0.00,CLR,,0.00,WeatherDisplay:10.37,2013-05-25 14:11:00,
2013-05-25 16:16:00,66.1,41.1,30.00,NNW,337,19.6,19.6,40,0.00,CLR,,0.00,WeatherDisplay:10.37,2013-05-25 14:16:00,
2013-05-25 16:21:00,65.4,42.3,30.00,ENE,66,11.5,11.5,43,0.00,CLR,,0.00,WeatherDisplay:10.37,2013-05-25 14:21:00,
2013-05-25 16:26:00,66.0,41.6,30.00,WNW,292,10.4,10.4,41,0.00,CLR,,0.00,WeatherDisplay:10.37,2013-05-25 14:26:00,
2013-05-25 16:31:00,66.5,41.4,30.00,West,269,12.7,12.7,40,0.00,CLR,,0.00,WeatherDisplay:10.37,2013-05-25 14:31:00,
2013-05-25 16:36:00,67.2,42.0,30.00,WSW,243,11.5,11.5,40,0.00,CLR,,0.00,WeatherDisplay:10.37,2013-05-25 14:36:00,
2013-05-25 16:41:00,67.4,40.9,30.00,NW,311,15.0,15.0,38,0.00,CLR,,0.00,WeatherDisplay:10.37,2013-05-25 14:41:00,
2013-05-25 16:46:00,67.2,40.7,30.00,North,350,15.0,15.0,38,0.00,CLR,,0.00,WeatherDisplay:10.37,2013-05-25 14:46:00,
2013-05-25 16:51:00,66.3,40.6,30.00,South,181,12.7,12.7,39,0.00,CLR,,0.00,WeatherDisplay:10.37,2013-05-25 14:51:00,
2013-05-25 16:56:00,66.6,40.9,30.00,West,265,11.5,11.5,39,0.00,CLR,,0.00,WeatherDisplay:10.37,2013-05-25 14:56:00,
2013-05-25 17:01:00,66.7,40.3,30.00,WNW,290,12.7,12.7,38,0.00,CLR,,0.00,WeatherDisplay:10.37,2013-05-25 15:01:00,
2013-05-25 17:06:00,66.7,40.3,30.00,WNW,298,8.1,8.1,38,0.00,CLR,,0.00,WeatherDisplay:10.37,2013-05-25 15:06:00,
2013-05-25 17:11:00,66.4,40.0,30.00,WSW,253,11.5,11.5,38,0.00,CLR,,0.00,WeatherDisplay:10.37,2013-05-25 15:11:00,
2013-05-25 17:16:00,66.6,40.2,30.00,WNW,284,10.4,10.4,38,0.00,CLR,,0.00,WeatherDisplay:10.37,2013-05-25 15:16:00,
2013-05-25 17:21:00,66.8,38.3,30.00,West,271,16.1,16.1,35,0.00,CLR,,0.00,WeatherDisplay:10.37,2013-05-25 15:21:00,
2013-05-25 17:26:00,66.4,38.6,30.00,WNW,289,15.0,15.0,36,0.00,CLR,,0.00,WeatherDisplay:10.37,2013-05-25 15:26:00,
2013-05-25 17:31:00,66.0,39.7,30.00,WNW,282,8.1,8.1,38,0.00,CLR,,0.00,WeatherDisplay:10.37,2013-05-25 15:31:00,
2013-05-25 17:36:00,66.8,39.0,30.00,West,281,17.3,17.3,36,0.00,CLR,,0.00,WeatherDisplay:10.37,2013-05-25 15:36:00,
2013-05-25 17:41:00,66.3,39.2,30.00,WNW,291,6.9,6.9,37,0.00,CLR,,0.00,WeatherDisplay:10.37,2013-05-25 15:41:00,
2013-05-25 17:46:00,67.1,39.2,30.00,West,268,8.1,8.1,36,0.00,CLR,,0.00,WeatherDisplay:10.37,2013-05-25 15:46:00,
2013-05-25 17:51:00,67.1,38.5,30.00,WNW,297,16.1,16.1,35,0.00,CLR,,0.00,WeatherDisplay:10.37,2013-05-25 15:51:00,
2013-05-25 17:56:00,66.9,38.3,30.00,NW,305,11.5,11.5,35,0.00,CLR,,0.00,WeatherDisplay:10.37,2013-05-25 15:56:00,
2013-05-25 18:01:00,66.5,38.7,30.00,WSW,246,15.0,15.0,36,0.00,CLR,,0.00,WeatherDisplay:10.37,2013-05-25 16:01:00,
2013-05-25 18:06:00,66.4,38.6,30.00,West,274,12.7,12.7,36,0.00,CLR,,0.00,WeatherDisplay:10.37,2013-05-25 16:06:00,
2013-05-25 18:11:00,66.4,39.3,30.00,WSW,258,11.0,11.0,37,0.00,CLR,,0.00,WeatherDisplay:10.37,2013-05-25 16:11:00,
2013-05-25 18:16:00,66.7,40.3,30.00,WSW,258,10.0,10.0,38,0.00,CLR,,0.00,WeatherDisplay:10.37,2013-05-25 16:16:00,
2013-05-25 18:21:00,66.9,40.5,30.00,WSW,241,8.1,8.1,38,0.00,CLR,,0.00,WeatherDisplay:10.37,2013-05-25 16:21:00,
2013-05-25 18:26:00,67.3,39.4,30.00,NW,318,11.5,11.5,36,0.00,CLR,,0.00,WeatherDisplay:10.37,2013-05-25 16:26:00,
2013-05-25 18:31:00,67.2,39.3,30.00,NW,310,10.4,10.4,36,0.00,CLR,,0.00,WeatherDisplay:10.37,2013-05-25 16:31:00,
2013-05-25 18:36:00,67.2,47.9,30.00,NE,43,10.0,10.0,50,0.00,CLR,,0.00,WeatherDisplay:10.37,2013-05-25 16:36:00,
2013-05-25 18:41:00,63.8,48.3,30.00,NE,54,15.0,15.0,57,0.00,CLR,,0.00,WeatherDisplay:10.37,2013-05-25 16:41:00,
2013-05-25 18:46:00,61.3,48.2,30.00,NE,47,23.0,23.0,62,0.00,CLR,,0.00,WeatherDisplay:10.37,2013-05-25 16:46:00,
2013-05-25 18:51:00,60.4,48.6,30.00,NE,48,26.5,26.5,65,0.00,CLR,,0.00,WeatherDisplay:10.37,2013-05-25 16:51:00,
2013-05-25 18:56:00,59.8,48.4,30.00,ENE,69,21.9,21.9,66,0.00,CLR,,0.00,WeatherDisplay:10.37,2013-05-25 16:56:00,
2013-05-25 19:01:00,59.9,48.5,30.00,ENE,73,23.0,23.0,66,0.00,CLR,,0.00,WeatherDisplay:10.37,2013-05-25 17:01:00,
2013-05-25 19:06:00,59.6,48.6,30.00,NNE,32,16.1,16.1,67,0.00,CLR,,0.00,WeatherDisplay:10.37,2013-05-25 17:06:00,
2013-05-25 19:11:00,59.7,48.7,30.00,ENE,70,19.6,19.6,67,0.00,CLR,,0.00,WeatherDisplay:10.37,2013-05-25 17:11:00,
2013-05-25 19:16:00,59.1,48.1,30.00,NE,45,19.6,19.6,67,0.00,CLR,,0.00,WeatherDisplay:10.37,2013-05-25 17:16:00,
2013-05-25 19:21:00,58.8,47.9,30.00,ENE,73,23.0,23.0,67,0.00,CLR,,0.00,WeatherDisplay:10.37,2013-05-25 17:21:00,
2013-05-25 19:26:00,58.7,48.2,30.01,ENE,76,23.0,23.0,68,0.00,CLR,,0.00,WeatherDisplay:10.37,2013-05-25 17:26:00,
2013-05-25 19:31:00,58.7,48.2,30.01,ENE,66,18.4,18.4,68,0.00,CLR,,0.00,WeatherDisplay:10.37,2013-05-25 17:31:00,
2013-05-25 19:36:00,58.7,48.2,30.01,ENE,64,19.6,19.6,68,0.00,CLR,,0.00,WeatherDisplay:10.37,2013-05-25 17:36:00,
2013-05-25 19:41:00,58.7,48.2,30.01,ENE,76,19.6,19.6,68,0.00,CLR,,0.00,WeatherDisplay:10.37,2013-05-25 17:41:00,
2013-05-25 19:46:00,58.4,47.9,30.02,ENE,77,17.3,17.3,68,0.00,CLR,,0.00,WeatherDisplay:10.37,2013-05-25 17:46:00,
2013-05-25 19:51:00,58.3,48.2,30.02,ENE,74,20.7,20.7,69,0.00,CLR,,0.00,WeatherDisplay:10.37,2013-05-25 17:51:00,
2013-05-25 19:56:00,58.2,48.1,30.02,NE,37,12.7,12.7,69,0.00,CLR,,0.00,WeatherDisplay:10.37,2013-05-25 17:56:00,
2013-05-25 20:01:00,58.2,47.7,30.02,ENE,60,16.0,16.0,68,0.00,CLR,,0.00,WeatherDisplay:10.37,2013-05-25 18:01:00,
2013-05-25 20:06:00,58.1,47.6,30.02,ENE,77,16.1,16.1,68,0.00,CLR,,0.00,WeatherDisplay:10.37,2013-05-25 18:06:00,
2013-05-25 20:11:00,58.1,48.0,30.02,ENE,74,17.3,17.3,69,0.00,CLR,,0.00,WeatherDisplay:10.37,2013-05-25 18:11:00,
2013-05-25 20:16:00,58.0,47.9,30.02,ESE,122,16.1,16.1,69,0.00,CLR,,0.00,WeatherDisplay:10.37,2013-05-25 18:16:00,
2013-05-25 20:21:00,57.8,47.7,30.02,ENE,75,18.4,18.4,69,0.00,CLR,,0.00,WeatherDisplay:10.37,2013-05-25 18:21:00,
2013-05-25 20:26:00,57.7,48.0,30.03,East,81,18.4,18.4,70,0.00,CLR,,0.00,WeatherDisplay:10.37,2013-05-25 18:26:00,
2013-05-25 20:31:00,57.6,47.5,30.03,ESE,122,15.0,15.0,69,0.00,CLR,,0.00,WeatherDisplay:10.37,2013-05-25 18:31:00,
2013-05-25 20:36:00,57.6,47.9,30.03,ENE,59,11.5,11.5,70,0.00,CLR,,0.00,WeatherDisplay:10.37,2013-05-25 18:36:00,
2013-05-25 20:41:00,57.4,47.7,30.03,East,83,11.5,11.5,70,0.00,CLR,,0.00,WeatherDisplay:10.37,2013-05-25 18:41:00,
2013-05-25 20:46:00,57.3,48.0,30.04,ESE,112,12.7,12.7,71,0.00,CLR,,0.00,WeatherDisplay:10.37,2013-05-25 18:46:00,
2013-05-25 20:51:00,57.2,47.9,30.04,East,84,15.0,15.0,71,0.00,CLR,,0.00,WeatherDisplay:10.37,2013-05-25 18:51:00,
2013-05-25 20:56:00,57.0,48.1,30.04,East,100,12.7,12.7,72,0.00,CLR,,0.00,WeatherDisplay:10.37,2013-05-25 18:56:00,
2013-05-25 21:01:00,56.9,48.0,30.04,ESE,109,12.7,12.7,72,0.00,CLR,,0.00,WeatherDisplay:10.37,2013-05-25 19:01:00,
2013-05-25 21:06:00,56.8,48.2,30.04,East,100,11.5,11.5,73,0.00,CLR,,0.00,WeatherDisplay:10.37,2013-05-25 19:06:00,
2013-05-25 21:11:00,56.7,48.1,30.04,ENE,69,15.0,15.0,73,0.00,CLR,,0.00,WeatherDisplay:10.37,2013-05-25 19:11:00,
2013-05-25 21:16:00,56.6,48.4,30.04,East,86,11.5,11.5,74,0.00,CLR,,0.00,WeatherDisplay:10.37,2013-05-25 19:16:00,
2013-05-25 21:21:00,56.5,48.3,30.05,East,97,11.5,11.5,74,0.00,CLR,,0.00,WeatherDisplay:10.37,2013-05-25 19:21:00,
2013-05-25 21:26:00,56.4,48.2,30.05,ESE,102,10.4,10.4,74,0.00,CLR,,0.00,WeatherDisplay:10.37,2013-05-25 19:26:00,
2013-05-25 21:31:00,56.3,48.1,30.05,ESE,109,8.1,8.1,74,0.00,CLR,,0.00,WeatherDisplay:10.37,2013-05-25 19:31:00,
2013-05-25 21:36:00,56.1,47.9,30.05,SE,127,11.5,11.5,74,0.00,CLR,,0.00,WeatherDisplay:10.37,2013-05-25 19:36:00,
2013-05-25 21:41:00,56.1,48.3,30.05,ENE,64,9.2,9.2,75,0.00,CLR,,0.00,WeatherDisplay:10.37,2013-05-25 19:41:00,
2013-05-25 21:46:00,56.0,48.2,30.05,ENE,69,9.2,9.2,75,0.00,CLR,,0.00,WeatherDisplay:10.37,2013-05-25 19:46:00,
2013-05-25 21:51:00,55.9,48.1,30.06,East,92,9.2,9.2,75,0.00,CLR,,0.00,WeatherDisplay:10.37,2013-05-25 19:51:00,
2013-05-25 21:56:00,55.8,48.3,30.06,East,79,11.5,11.5,76,0.00,CLR,,0.00,WeatherDisplay:10.37,2013-05-25 19:56:00,
2013-05-25 22:01:00,55.8,48.3,30.06,East,99,9.2,9.2,76,0.00,CLR,,0.00,WeatherDisplay:10.37,2013-05-25 20:01:00,
2013-05-25 22:06:00,55.8,48.3,30.06,ESE,106,6.9,6.9,76,0.00,CLR,,0.00,WeatherDisplay:10.37,2013-05-25 20:06:00,
2013-05-25 22:11:00,55.8,48.3,30.07,East,95,9.2,9.2,76,0.00,CLR,,0.00,WeatherDisplay:10.37,2013-05-25 20:11:00,
2013-05-25 22:16:00,55.8,48.3,30.07,ESE,112,6.9,6.9,76,0.00,CLR,,0.00,WeatherDisplay:10.37,2013-05-25 20:16:00,
2013-05-25 22:21:00,55.8,48.3,30.07,East,84,7.0,7.0,76,0.00,CLR,,0.00,WeatherDisplay:10.37,2013-05-25 20:21:00,
2013-05-25 22:26:00,55.7,48.2,30.07,East,92,8.1,8.1,76,0.00,CLR,,0.00,WeatherDisplay:10.37,2013-05-25 20:26:00,
2013-05-25 22:31:00,55.7,48.2,30.08,East,95,8.1,8.1,76,0.00,CLR,,0.00,WeatherDisplay:10.37,2013-05-25 20:31:00,
2013-05-25 22:36:00,55.6,48.2,30.08,East,92,7.0,7.0,76,0.00,CLR,,0.00,WeatherDisplay:10.37,2013-05-25 20:36:00,
2013-05-25 22:41:00,55.6,48.2,30.08,ESE,114,8.1,8.1,76,0.00,CLR,,0.00,WeatherDisplay:10.37,2013-05-25 20:41:00,
2013-05-25 22:46:00,55.5,48.1,30.08,East,88,9.2,9.2,76,0.00,CLR,,0.00,WeatherDisplay:10.37,2013-05-25 20:46:00,
2013-05-25 22:51:00,55.6,48.2,30.09,East,101,8.1,8.1,76,0.00,CLR,,0.00,WeatherDisplay:10.37,2013-05-25 20:51:00,
2013-05-25 22:56:00,55.6,48.5,30.09,ESE,106,10.4,10.4,77,0.00,CLR,,0.00,WeatherDisplay:10.37,2013-05-25 20:56:00,
2013-05-25 23:01:00,55.6,48.5,30.09,ENE,66,9.2,9.2,77,0.00,CLR,,0.00,WeatherDisplay:10.37,2013-05-25 21:01:00,
2013-05-25 23:06:00,55.7,48.6,30.09,East,87,6.9,6.9,77,0.00,CLR,,0.00,WeatherDisplay:10.37,2013-05-25 21:06:00,
2013-05-25 23:11:00,55.7,48.6,30.09,East,95,9.2,9.2,77,0.00,CLR,,0.00,WeatherDisplay:10.37,2013-05-25 21:11:00,
2013-05-25 23:16:00,55.7,48.6,30.09,ESE,117,8.1,8.1,77,0.00,CLR,,0.00,WeatherDisplay:10.37,2013-05-25 21:16:00,
2013-05-25 23:21:00,55.7,48.6,30.09,ESE,106,10.4,10.4,77,0.00,CLR,,0.00,WeatherDisplay:10.37,2013-05-25 21:21:00,
2013-05-25 23:26:00,55.6,48.5,30.09,East,85,6.9,6.9,77,0.00,CLR,,0.00,WeatherDisplay:10.37,2013-05-25 21:26:00,
2013-05-25 23:31:00,55.7,48.6,30.09,ESE,109,8.1,8.1,77,0.00,CLR,,0.00,WeatherDisplay:10.37,2013-05-25 21:31:00,
2013-05-25 23:36:00,55.7,48.6,30.09,East,81,7.0,7.0,77,0.00,CLR,,0.00,WeatherDisplay:10.37,2013-05-25 21:36:00,
2013-05-25 23:41:00,55.7,48.6,30.09,East,99,8.1,8.1,77,0.00,CLR,,0.00,WeatherDisplay:10.37,2013-05-25 21:41:00,
2013-05-25 23:46:00,55.8,48.7,30.09,ESE,113,8.0,8.0,77,0.00,CLR,,0.00,WeatherDisplay:10.37,2013-05-25 21:46:00,
2013-05-25 23:51:00,55.7,48.9,30.09,ESE,118,8.1,8.1,78,0.00,CLR,,0.00,WeatherDisplay:10.37,2013-05-25 21:51:00,
2013-05-25 23:56:00,55.7,48.9,30.09,ESE,108,6.9,6.9,78,0.00,CLR,,0.00,WeatherDisplay:10.37,2013-05-25 21:56:00,